Detroit, Michigan
Traffic Map
Current Weather Conditions
Detroit, Michigan
Overcast Light Snow
Overcast
27°
Feels Like: 15°
Wind Chill: 15° Ceiling: 700
Heat Index: 27° Visibility: 2mi
Dew Point: 25° Wind: 15mph
Humidity: 93% Direction: 50° (NE)
Pressure: 30.17in Gusts: 0mph
Raw Report DataCYQG 011019Z 05013KT 2SM -SN OVC007 M03/M04 A3017 RMK SF8 SLP223
Traffic Incident Summary
Active as of:
Severity:
Category:
InformationThere was an issue retrieving the traffic information for this location. Please try a different location or try again shortly.
Advertisements
Track Severe Weather on mobile